createdAt,value
2018-05-14T03:21:51.225Z,82.66
2018-05-14T03:24:19.799Z,82.24
2018-05-14T03:26:48.390Z,81.27
2018-05-14T03:29:16.979Z,80.46
2018-05-14T03:31:45.603Z,80.09
2018-05-14T03:34:14.236Z,79.58
2018-05-14T03:36:42.828Z,79.11
2018-05-14T03:39:11.419Z,78.69
2018-05-14T03:41:40.006Z,78.84
2018-05-14T03:44:08.590Z,78.32
2018-05-14T03:46:37.196Z,78.15
2018-05-14T03:49:05.842Z,77.77
2018-05-14T03:51:34.418Z,77.75
2018-05-14T03:54:03.015Z,77.47
2018-05-14T03:56:31.605Z,77.04
2018-05-14T03:59:11.249Z,76.66
2018-05-14T04:01:50.827Z,76.17
2018-05-14T04:04:30.470Z,75.86
2018-05-14T04:06:58.723Z,75.80
2018-05-14T04:09:27.375Z,75.44
2018-05-14T04:11:55.957Z,75.37
2018-05-14T04:14:24.605Z,75.12
2018-05-14T04:16:53.210Z,74.95
2018-05-14T04:19:21.786Z,74.95
2018-05-14T04:21:50.423Z,75.14
2018-05-14T04:24:19.094Z,75.00
2018-05-14T04:26:47.897Z,73.59
2018-05-14T04:29:17.760Z,73.59
2018-05-14T04:31:46.408Z,73.88
2018-05-14T04:34:15.035Z,73.87
2018-05-14T04:36:43.629Z,73.10
2018-05-14T04:39:12.205Z,73.03
2018-05-14T04:41:40.787Z,72.28
2018-05-14T04:44:09.462Z,71.74
2018-05-14T04:46:38.058Z,71.58
2018-05-14T04:49:06.645Z,71.22
2018-05-14T04:51:35.228Z,71.23
2018-05-14T04:54:03.811Z,71.12
2018-05-14T04:56:32.370Z,71.47
2018-05-14T04:59:01.013Z,71.29
2018-05-14T05:01:29.612Z,70.69
2018-05-14T05:03:58.223Z,70.34
2018-05-14T05:06:26.782Z,69.76
2018-05-14T05:08:55.356Z,69.49
2018-05-14T05:11:23.971Z,69.80
2018-05-14T05:13:52.699Z,69.78
2018-05-14T05:16:20.942Z,69.71
2018-05-14T05:18:49.528Z,68.97
2018-05-14T05:21:18.098Z,68.88
2018-05-14T05:23:46.687Z,67.93
2018-05-14T05:26:15.272Z,67.74
2018-05-14T05:28:43.867Z,67.93
2018-05-14T05:31:12.439Z,67.97
2018-05-14T05:33:41.006Z,67.93
2018-05-14T05:36:09.583Z,67.69
2018-05-14T05:38:38.151Z,67.30
2018-05-14T05:41:06.711Z,66.77
2018-05-14T05:43:35.288Z,66.31
2018-05-14T05:46:09.127Z,66.43
2018-05-14T05:48:37.959Z,66.21
2018-05-14T05:51:06.255Z,66.11
2018-05-14T05:53:34.894Z,65.92
2018-05-14T05:56:03.452Z,65.44
2018-05-14T05:58:32.012Z,65.88
2018-05-14T06:01:00.645Z,65.14
2018-05-14T06:03:29.210Z,65.13
2018-05-14T06:05:57.817Z,65.03
2018-05-14T06:08:26.447Z,64.75
2018-05-14T06:10:55.023Z,63.91
2018-05-14T06:13:23.588Z,63.45
2018-05-14T06:15:52.148Z,62.97
2018-05-14T06:18:20.821Z,62.89
2018-05-14T06:20:49.446Z,62.04
2018-05-14T06:23:18.011Z,62.18
2018-05-14T06:25:46.574Z,62.00
2018-05-14T06:28:15.169Z,62.19
2018-05-14T06:30:43.756Z,62.51
2018-05-14T06:33:12.327Z,62.71
2018-05-14T06:35:41.943Z,62.86
2018-05-14T06:38:10.559Z,62.59
2018-05-14T06:40:39.116Z,61.95
2018-05-14T06:43:07.680Z,61.75
2018-05-14T06:45:36.246Z,62.29
2018-05-14T06:48:04.858Z,61.48
2018-05-14T06:50:33.463Z,61.69
2018-05-14T06:53:02.023Z,61.54
2018-05-14T06:55:30.584Z,62.00
2018-05-14T06:57:59.246Z,60.39
2018-05-14T07:00:27.843Z,60.63
2018-05-14T07:02:56.483Z,61.17
2018-05-14T07:05:25.040Z,61.27
2018-05-14T07:07:53.598Z,60.61
2018-05-14T07:10:22.208Z,60.13
2018-05-14T07:12:50.762Z,59.82
2018-05-14T07:15:19.328Z,59.14
2018-05-14T07:17:47.934Z,58.39
2018-05-14T07:20:16.499Z,58.30
2018-05-14T07:22:45.071Z,57.74
2018-05-14T07:25:13.678Z,58.27
2018-05-14T07:27:42.319Z,58.77
2018-05-14T07:30:11.039Z,58.85
2018-05-14T07:32:39.717Z,58.66
2018-05-14T07:35:08.292Z,58.02
2018-05-14T07:37:36.875Z,59.09
2018-05-14T07:40:05.441Z,58.65
2018-05-14T07:42:34.020Z,58.19
2018-05-14T07:45:02.660Z,58.24
2018-05-14T07:47:31.280Z,57.57
2018-05-14T07:49:59.917Z,57.31
2018-05-14T07:52:28.606Z,57.10
2018-05-14T07:54:57.464Z,56.76
2018-05-14T07:57:26.032Z,57.24
2018-05-14T07:59:55.245Z,56.54
2018-05-14T08:02:23.983Z,56.29
2018-05-14T08:04:52.618Z,56.00
2018-05-14T08:07:21.272Z,55.38
2018-05-14T08:09:49.839Z,55.60
2018-05-14T08:12:18.432Z,55.86
2018-05-14T08:14:47.065Z,55.89
2018-05-14T08:17:15.700Z,56.18
2018-05-14T08:19:44.313Z,55.91
2018-05-14T08:22:12.915Z,55.79
2018-05-14T08:24:41.473Z,55.25
2018-05-14T08:27:10.067Z,53.25
2018-05-14T08:29:38.679Z,53.13
2018-05-14T08:32:07.274Z,52.17
2018-05-14T08:34:35.831Z,52.08
2018-05-14T08:37:04.255Z,51.90
2018-05-14T08:39:32.935Z,51.83
2018-05-14T08:42:01.514Z,50.11
2018-05-14T08:44:30.100Z,50.24
2018-05-14T08:46:58.708Z,50.19
2018-05-14T08:49:27.274Z,50.50
2018-05-14T08:51:55.883Z,50.64
2018-05-14T08:54:24.558Z,50.48
2018-05-14T08:56:53.298Z,49.15
2018-05-14T08:59:21.872Z,48.91
2018-05-14T09:01:50.467Z,50.00
2018-05-14T09:04:19.072Z,49.52
2018-05-14T09:06:47.712Z,49.05
2018-05-14T09:09:16.295Z,49.13
2018-05-14T09:11:44.891Z,48.46
2018-05-14T09:14:13.556Z,48.84
2018-05-14T09:16:42.132Z,47.62
2018-05-14T09:19:10.729Z,47.70
2018-05-14T09:21:39.333Z,48.06
2018-05-14T09:24:07.926Z,48.18
2018-05-14T09:26:36.498Z,45.33
2018-05-14T09:29:05.067Z,41.73
2018-05-14T09:31:33.640Z,41.83
2018-05-14T09:34:02.221Z,44.17
2018-05-14T09:36:30.789Z,44.57
2018-05-14T09:38:59.454Z,45.10
2018-05-14T09:41:28.076Z,46.10
2018-05-14T09:43:56.642Z,46.11
2018-05-14T09:46:25.211Z,45.85
2018-05-14T09:48:53.796Z,46.14
2018-05-14T09:51:22.376Z,47.04
2018-05-14T09:53:50.955Z,47.13
2018-05-14T09:56:19.560Z,46.64
2018-05-14T09:58:48.147Z,46.63
2018-05-14T10:01:16.738Z,47.11
2018-05-14T10:03:45.373Z,45.79
2018-05-14T10:06:13.934Z,44.65
2018-05-14T10:08:42.538Z,44.59
2018-05-14T10:11:11.108Z,44.63
2018-05-14T10:13:39.680Z,41.07
2018-05-14T10:16:08.277Z,40.05
2018-05-14T10:18:36.835Z,40.50
2018-05-14T10:21:05.409Z,44.36
2018-05-14T10:23:34.006Z,49.12
2018-05-14T10:26:02.584Z,51.79
2018-05-14T10:28:31.215Z,53.45
2018-05-14T10:30:59.775Z,54.66
2018-05-14T10:33:28.360Z,55.97
2018-05-14T10:35:56.642Z,56.54
2018-05-14T10:38:25.197Z,56.25
2018-05-14T10:40:53.819Z,56.75
2018-05-14T10:43:22.385Z,56.57
2018-05-14T10:45:50.971Z,56.44
2018-05-14T10:48:19.555Z,57.22
2018-05-14T10:50:48.148Z,57.02
2018-05-14T10:53:16.734Z,56.54
2018-05-14T10:55:45.304Z,56.98
2018-05-14T10:58:13.889Z,56.36
2018-05-14T11:00:42.477Z,56.78
2018-05-14T11:03:11.082Z,56.62
2018-05-14T11:05:39.703Z,57.16
2018-05-14T11:08:08.268Z,57.08
2018-05-14T11:10:36.638Z,56.77
2018-05-14T11:13:05.042Z,56.53
2018-05-14T11:15:33.596Z,54.72
2018-05-14T11:18:02.160Z,54.22
2018-05-14T11:20:30.719Z,54.27
2018-05-14T11:22:59.361Z,55.01
2018-05-14T11:25:27.936Z,55.18
2018-05-14T11:27:56.614Z,56.57
2018-05-14T11:30:25.116Z,56.83
2018-05-14T11:32:53.669Z,56.00
2018-05-14T11:35:22.326Z,57.01
2018-05-14T11:37:51.004Z,58.96
2018-05-14T11:40:19.569Z,58.43
2018-05-14T11:42:48.180Z,62.10
2018-05-14T11:45:16.767Z,63.93
2018-05-14T11:47:45.338Z,66.06
2018-05-14T11:50:13.914Z,64.47
2018-05-14T11:52:42.493Z,65.29
2018-05-14T11:55:11.048Z,65.11
2018-05-14T11:57:39.613Z,64.37
2018-05-14T12:00:10.296Z,63.47
2018-05-14T12:02:38.854Z,62.70
2018-05-14T12:05:07.423Z,61.83
2018-05-14T12:07:36.016Z,61.92
2018-05-14T12:10:04.675Z,60.80
2018-05-14T12:12:33.253Z,60.53
2018-05-14T12:15:01.825Z,61.34
2018-05-14T12:17:30.431Z,60.47
2018-05-14T12:19:59.026Z,61.12
2018-05-14T12:22:27.591Z,60.32
2018-05-14T12:24:56.147Z,60.16
2018-05-14T12:27:24.708Z,58.90
2018-05-14T12:29:53.298Z,59.68
2018-05-14T12:32:21.880Z,59.53
2018-05-14T12:34:50.460Z,59.88
2018-05-14T12:37:19.047Z,59.68
2018-05-14T12:39:47.625Z,61.16
2018-05-14T12:42:16.213Z,62.74
2018-05-14T12:44:44.797Z,61.26
2018-05-14T12:47:13.374Z,63.10
2018-05-14T12:49:41.631Z,59.40
2018-05-14T12:52:10.198Z,58.72
2018-05-14T12:54:38.800Z,59.10
2018-05-14T12:57:08.031Z,59.27
2018-05-14T12:59:36.785Z,58.10
2018-05-14T13:02:05.132Z,57.88
2018-05-14T13:04:33.719Z,58.07
2018-05-14T13:07:02.404Z,58.45
2018-05-14T13:09:31.112Z,57.87
2018-05-14T13:11:59.680Z,58.54
2018-05-14T13:14:28.244Z,57.76
2018-05-14T13:16:56.817Z,57.63
2018-05-14T13:19:25.636Z,58.52
2018-05-14T13:21:54.234Z,59.67
2018-05-14T13:24:22.819Z,57.66
2018-05-14T13:26:51.439Z,57.86
2018-05-14T13:29:20.032Z,57.26
2018-05-14T13:31:48.691Z,57.17
2018-05-14T13:34:17.329Z,56.71
2018-05-14T13:36:45.905Z,57.02
2018-05-14T13:39:14.485Z,57.17
2018-05-14T13:41:43.061Z,54.85
2018-05-14T13:44:11.634Z,54.18
2018-05-14T13:46:40.406Z,52.57
2018-05-14T13:49:08.998Z,53.34
2018-05-14T13:51:37.563Z,52.73
2018-05-14T13:54:06.517Z,52.58
2018-05-14T13:56:35.118Z,52.04
2018-05-14T13:59:03.408Z,52.24
2018-05-14T14:01:31.988Z,52.86
2018-05-14T14:04:00.566Z,52.25
2018-05-14T14:06:29.148Z,51.12
2018-05-14T14:08:58.232Z,52.02
2018-05-14T14:11:26.794Z,53.11
2018-05-14T14:13:55.554Z,53.30
2018-05-14T14:16:24.119Z,52.88
2018-05-14T14:18:52.758Z,53.12
2018-05-14T14:21:21.324Z,52.71
2018-05-14T14:23:50.155Z,52.30
2018-05-14T14:26:18.676Z,52.90
2018-05-14T14:28:47.230Z,52.43
2018-05-14T14:31:15.520Z,51.66
2018-05-14T14:33:44.074Z,51.76
2018-05-14T14:36:12.695Z,51.82
2018-05-14T14:38:41.391Z,51.31
2018-05-14T14:41:09.973Z,51.29
2018-05-14T14:43:38.538Z,51.17
2018-05-14T14:46:06.746Z,50.71
2018-05-14T14:48:35.292Z,50.73
2018-05-14T14:51:03.863Z,50.96
2018-05-14T14:53:32.501Z,51.76
2018-05-14T14:56:01.279Z,51.92
2018-05-14T14:58:29.828Z,52.19
2018-05-14T15:00:58.394Z,52.42
2018-05-14T15:03:26.937Z,51.75
2018-05-14T15:05:55.499Z,51.99
2018-05-14T15:08:24.077Z,51.97
2018-05-14T15:10:52.655Z,51.70
2018-05-14T15:13:21.751Z,51.35
2018-05-14T15:15:50.372Z,51.36
2018-05-14T15:18:18.975Z,51.84
2018-05-14T15:20:47.632Z,51.91
2018-05-14T15:23:16.224Z,52.01
2018-05-14T15:25:44.785Z,52.69
2018-05-14T15:28:13.353Z,52.83
2018-05-14T15:30:41.966Z,52.86
2018-05-14T15:33:10.528Z,53.06
2018-05-14T15:35:39.095Z,53.46
2018-05-14T15:38:07.723Z,53.69
2018-05-14T15:40:36.292Z,54.01
2018-05-14T15:43:04.847Z,54.10
2018-05-14T15:45:33.409Z,55.08
2018-05-14T15:48:01.987Z,55.64
2018-05-14T15:50:30.568Z,55.94
2018-05-14T15:52:59.228Z,55.98
2018-05-14T15:55:28.637Z,56.14
2018-05-14T15:57:57.225Z,56.47
2018-05-14T16:00:25.858Z,56.78
2018-05-14T16:02:54.420Z,56.51
2018-05-14T16:05:22.987Z,56.51
2018-05-14T16:07:51.583Z,56.72
2018-05-14T16:10:19.813Z,56.60
2018-05-14T16:12:48.374Z,57.36
2018-05-14T16:15:16.954Z,57.42
2018-05-14T16:17:45.938Z,57.59
2018-05-14T16:20:15.387Z,57.64
2018-05-14T16:22:43.968Z,57.63
2018-05-14T16:25:12.527Z,57.87
2018-05-14T16:27:41.097Z,57.71
2018-05-14T16:30:09.804Z,57.56
2018-05-14T16:32:38.540Z,57.87
2018-05-14T16:35:06.458Z,57.92
2018-05-14T16:37:35.044Z,57.82
2018-05-14T16:40:03.280Z,57.88
2018-05-14T16:42:32.003Z,57.83
2018-05-14T16:45:00.587Z,58.16
2018-05-14T16:47:29.152Z,58.24
2018-05-14T16:49:57.722Z,58.44
2018-05-14T16:52:26.290Z,58.73
2018-05-14T16:54:54.929Z,59.30
2018-05-14T16:57:23.488Z,59.66
2018-05-14T16:59:52.078Z,60.05
2018-05-14T17:02:20.656Z,60.79
2018-05-14T17:04:49.234Z,60.99
2018-05-14T17:07:17.800Z,61.45
2018-05-14T17:09:46.411Z,61.74
2018-05-14T17:12:14.970Z,62.10
2018-05-14T17:14:43.541Z,58.03
2018-05-14T17:17:12.136Z,60.66
2018-05-14T17:19:40.747Z,61.03
2018-05-14T17:22:09.303Z,61.32
2018-05-14T17:24:38.843Z,61.53
2018-05-14T17:27:07.467Z,61.42
2018-05-14T17:29:36.068Z,61.33
2018-05-14T17:32:03.973Z,61.55
2018-05-14T17:34:32.543Z,61.66
2018-05-14T17:37:01.832Z,61.81
2018-05-14T17:39:30.396Z,62.76
2018-05-14T17:41:58.994Z,63.06
2018-05-14T17:44:27.633Z,63.01
2018-05-14T17:46:56.258Z,62.72
2018-05-14T17:49:25.031Z,63.57
2018-05-14T17:51:53.632Z,64.05
2018-05-14T17:54:22.229Z,63.84
2018-05-14T17:56:50.843Z,64.85
2018-05-14T17:59:19.508Z,64.96
2018-05-14T18:01:48.217Z,65.53
2018-05-14T18:04:16.813Z,65.84
2018-05-14T18:06:45.374Z,66.00
2018-05-14T18:09:14.003Z,66.04
2018-05-14T18:11:42.599Z,65.95
2018-05-14T18:14:11.193Z,65.98
2018-05-14T18:16:39.859Z,66.64
2018-05-14T18:19:08.704Z,66.80
2018-05-14T18:21:38.020Z,66.63
2018-05-14T18:24:06.620Z,66.80
2018-05-14T18:26:41.200Z,66.84
2018-05-14T18:29:09.774Z,67.37
2018-05-14T18:31:43.798Z,67.36
2018-05-14T18:34:22.493Z,67.24
2018-05-14T18:36:51.084Z,67.11
2018-05-14T18:39:19.660Z,67.25
2018-05-14T18:41:49.225Z,67.57
2018-05-14T18:44:17.708Z,68.12
2018-05-14T18:46:46.314Z,68.14
2018-05-14T18:49:14.911Z,68.08
2018-05-14T18:51:43.485Z,68.13
2018-05-14T18:54:12.118Z,68.36
2018-05-14T18:56:40.717Z,69.13
2018-05-14T18:59:09.309Z,69.42
2018-05-14T19:01:37.930Z,69.48
2018-05-14T19:04:06.514Z,68.63
2018-05-14T19:06:35.811Z,68.62
2018-05-14T19:09:03.502Z,68.39
2018-05-14T19:11:37.609Z,69.11
2018-05-14T19:14:06.203Z,68.33
2018-05-14T19:16:40.174Z,68.10
2018-05-14T19:19:08.735Z,68.09
